sensor_id;sensor_type;location;lat;lon;timestamp;temperature;humidity
11239;DHT22;5677;48.488;13.436;2023-03-23T00:00:14;12.80;40.60
11239;DHT22;5677;48.488;13.436;2023-03-23T00:02:40;12.70;40.60
11239;DHT22;5677;48.488;13.436;2023-03-23T00:05:09;12.80;40.70
11239;DHT22;5677;48.488;13.436;2023-03-23T00:07:36;12.70;40.70
11239;DHT22;5677;48.488;13.436;2023-03-23T00:10:05;12.70;40.70
11239;DHT22;5677;48.488;13.436;2023-03-23T00:12:32;12.80;40.70
11239;DHT22;5677;48.488;13.436;2023-03-23T00:15:04;12.70;40.70
11239;DHT22;5677;48.488;13.436;2023-03-23T00:17:31;12.70;40.70
11239;DHT22;5677;48.488;13.436;2023-03-23T00:19:59;12.70;41.40
11239;DHT22;5677;48.488;13.436;2023-03-23T00:22:27;12.70;40.70
11239;DHT22;5677;48.488;13.436;2023-03-23T00:24:55;12.70;40.70
11239;DHT22;5677;48.488;13.436;2023-03-23T00:27:23;12.80;40.70
11239;DHT22;5677;48.488;13.436;2023-03-23T00:29:50;12.70;40.70
11239;DHT22;5677;48.488;13.436;2023-03-23T00:32:19;12.70;40.70
11239;DHT22;5677;48.488;13.436;2023-03-23T00:34:46;12.70;40.70
11239;DHT22;5677;48.488;13.436;2023-03-23T00:37:15;12.70;40.70
11239;DHT22;5677;48.488;13.436;2023-03-23T00:39:43;12.70;40.70
11239;DHT22;5677;48.488;13.436;2023-03-23T00:42:12;12.70;40.70
11239;DHT22;5677;48.488;13.436;2023-03-23T00:44:40;12.70;40.80
11239;DHT22;5677;48.488;13.436;2023-03-23T00:47:07;12.70;40.70
11239;DHT22;5677;48.488;13.436;2023-03-23T00:49:36;12.70;40.70
11239;DHT22;5677;48.488;13.436;2023-03-23T00:52:04;12.70;40.70
11239;DHT22;5677;48.488;13.436;2023-03-23T00:54:31;12.70;40.80
11239;DHT22;5677;48.488;13.436;2023-03-23T00:56:58;12.70;40.70
11239;DHT22;5677;48.488;13.436;2023-03-23T00:59:25;12.70;40.70
11239;DHT22;5677;48.488;13.436;2023-03-23T01:01:53;12.70;40.80
11239;DHT22;5677;48.488;13.436;2023-03-23T01:04:20;12.70;40.70
11239;DHT22;5677;48.488;13.436;2023-03-23T01:06:49;12.70;40.80
11239;DHT22;5677;48.488;13.436;2023-03-23T01:09:19;12.70;40.80
11239;DHT22;5677;48.488;13.436;2023-03-23T01:11:48;12.70;40.80
11239;DHT22;5677;48.488;13.436;2023-03-23T01:14:17;12.70;40.80
11239;DHT22;5677;48.488;13.436;2023-03-23T01:16:44;12.70;40.80
11239;DHT22;5677;48.488;13.436;2023-03-23T01:19:13;12.60;40.70
11239;DHT22;5677;48.488;13.436;2023-03-23T01:21:41;12.60;40.70
11239;DHT22;5677;48.488;13.436;2023-03-23T01:24:08;12.70;40.80
11239;DHT22;5677;48.488;13.436;2023-03-23T01:26:36;12.60;40.70
11239;DHT22;5677;48.488;13.436;2023-03-23T01:29:03;12.60;40.80
11239;DHT22;5677;48.488;13.436;2023-03-23T01:31:30;12.60;40.70
11239;DHT22;5677;48.488;13.436;2023-03-23T01:33:57;12.60;40.70
11239;DHT22;5677;48.488;13.436;2023-03-23T01:36:27;12.60;40.70
11239;DHT22;5677;48.488;13.436;2023-03-23T01:38:54;12.60;40.70
11239;DHT22;5677;48.488;13.436;2023-03-23T01:41:23;12.60;40.70
11239;DHT22;5677;48.488;13.436;2023-03-23T01:43:57;12.60;40.70
11239;DHT22;5677;48.488;13.436;2023-03-23T01:46:27;12.60;40.70
11239;DHT22;5677;48.488;13.436;2023-03-23T01:48:55;12.60;40.70
11239;DHT22;5677;48.488;13.436;2023-03-23T01:51:24;12.60;40.70
11239;DHT22;5677;48.488;13.436;2023-03-23T01:53:55;12.60;40.70
11239;DHT22;5677;48.488;13.436;2023-03-23T01:56:27;12.60;40.70
11239;DHT22;5677;48.488;13.436;2023-03-23T01:58:55;12.60;40.70
11239;DHT22;5677;48.488;13.436;2023-03-23T02:01:23;12.60;40.70
11239;DHT22;5677;48.488;13.436;2023-03-23T02:03:52;12.60;40.70
11239;DHT22;5677;48.488;13.436;2023-03-23T02:06:21;12.60;40.80
11239;DHT22;5677;48.488;13.436;2023-03-23T02:08:51;12.60;40.70
11239;DHT22;5677;48.488;13.436;2023-03-23T02:11:20;12.60;40.70
11239;DHT22;5677;48.488;13.436;2023-03-23T02:13:47;12.60;40.70
11239;DHT22;5677;48.488;13.436;2023-03-23T02:16:21;12.60;40.70
11239;DHT22;5677;48.488;13.436;2023-03-23T02:18:56;12.60;40.70
11239;DHT22;5677;48.488;13.436;2023-03-23T02:21:59;12.60;40.70
11239;DHT22;5677;48.488;13.436;2023-03-23T02:27:25;12.60;40.70
11239;DHT22;5677;48.488;13.436;2023-03-23T02:30:15;12.60;40.80
11239;DHT22;5677;48.488;13.436;2023-03-23T02:35:48;12.60;40.80
11239;DHT22;5677;48.488;13.436;2023-03-23T02:38:19;12.60;40.80
11239;DHT22;5677;48.488;13.436;2023-03-23T02:40:49;12.60;40.70
11239;DHT22;5677;48.488;13.436;2023-03-23T02:43:20;12.50;40.70
11239;DHT22;5677;48.488;13.436;2023-03-23T02:45:48;12.50;40.70
11239;DHT22;5677;48.488;13.436;2023-03-23T02:48:18;12.50;40.80
11239;DHT22;5677;48.488;13.436;2023-03-23T02:50:51;12.60;40.80
11239;DHT22;5677;48.488;13.436;2023-03-23T02:53:20;12.60;40.80
11239;DHT22;5677;48.488;13.436;2023-03-23T02:55:48;12.60;40.80
11239;DHT22;5677;48.488;13.436;2023-03-23T02:58:18;12.50;40.80
11239;DHT22;5677;48.488;13.436;2023-03-23T03:00:45;12.50;40.70
11239;DHT22;5677;48.488;13.436;2023-03-23T03:03:17;12.50;40.80
11239;DHT22;5677;48.488;13.436;2023-03-23T03:05:53;12.50;40.80
11239;DHT22;5677;48.488;13.436;2023-03-23T03:08:30;12.50;40.80
11239;DHT22;5677;48.488;13.436;2023-03-23T03:11:03;12.50;40.70
11239;DHT22;5677;48.488;13.436;2023-03-23T03:13:37;12.50;41.50
11239;DHT22;5677;48.488;13.436;2023-03-23T03:16:09;12.50;40.80
11239;DHT22;5677;48.488;13.436;2023-03-23T03:18:43;12.50;40.70
11239;DHT22;5677;48.488;13.436;2023-03-23T03:21:13;12.50;40.70
11239;DHT22;5677;48.488;13.436;2023-03-23T03:23:42;12.50;40.70
11239;DHT22;5677;48.488;13.436;2023-03-23T03:26:13;12.50;40.70
11239;DHT22;5677;48.488;13.436;2023-03-23T03:28:43;12.50;40.80
11239;DHT22;5677;48.488;13.436;2023-03-23T03:31:14;12.50;40.70
11239;DHT22;5677;48.488;13.436;2023-03-23T03:33:42;12.50;40.80
11239;DHT22;5677;48.488;13.436;2023-03-23T03:36:17;12.50;40.80
11239;DHT22;5677;48.488;13.436;2023-03-23T03:38:46;12.50;40.80
11239;DHT22;5677;48.488;13.436;2023-03-23T03:41:14;12.50;40.80
11239;DHT22;5677;48.488;13.436;2023-03-23T03:43:41;12.50;40.70
11239;DHT22;5677;48.488;13.436;2023-03-23T03:46:07;12.50;40.80
11239;DHT22;5677;48.488;13.436;2023-03-23T03:48:35;12.50;40.80
11239;DHT22;5677;48.488;13.436;2023-03-23T03:51:02;12.50;40.80
11239;DHT22;5677;48.488;13.436;2023-03-23T03:53:30;12.50;40.70
11239;DHT22;5677;48.488;13.436;2023-03-23T03:55:57;12.50;40.80
11239;DHT22;5677;48.488;13.436;2023-03-23T03:58:25;12.50;40.80
11239;DHT22;5677;48.488;13.436;2023-03-23T04:00:57;12.50;40.80
11239;DHT22;5677;48.488;13.436;2023-03-23T04:03:24;12.50;40.80
11239;DHT22;5677;48.488;13.436;2023-03-23T04:05:52;12.50;40.80
11239;DHT22;5677;48.488;13.436;2023-03-23T04:08:20;12.50;40.80
11239;DHT22;5677;48.488;13.436;2023-03-23T04:10:49;12.50;40.80
11239;DHT22;5677;48.488;13.436;2023-03-23T04:13:16;12.50;40.80
11239;DHT22;5677;48.488;13.436;2023-03-23T04:15:44;12.50;40.80
11239;DHT22;5677;48.488;13.436;2023-03-23T04:18:10;12.40;40.70
11239;DHT22;5677;48.488;13.436;2023-03-23T04:20:39;12.40;40.70
11239;DHT22;5677;48.488;13.436;2023-03-23T04:23:06;12.40;40.70
11239;DHT22;5677;48.488;13.436;2023-03-23T04:25:32;12.40;40.70
11239;DHT22;5677;48.488;13.436;2023-03-23T04:28:00;12.40;40.70
11239;DHT22;5677;48.488;13.436;2023-03-23T04:30:28;12.40;40.80
11239;DHT22;5677;48.488;13.436;2023-03-23T04:32:57;12.40;40.80
11239;DHT22;5677;48.488;13.436;2023-03-23T04:35:26;12.40;40.80
11239;DHT22;5677;48.488;13.436;2023-03-23T04:37:54;12.40;40.70
11239;DHT22;5677;48.488;13.436;2023-03-23T04:40:21;12.40;40.80
11239;DHT22;5677;48.488;13.436;2023-03-23T04:42:48;12.40;40.80
11239;DHT22;5677;48.488;13.436;2023-03-23T04:45:20;12.40;40.80
11239;DHT22;5677;48.488;13.436;2023-03-23T04:47:48;12.40;40.80
11239;DHT22;5677;48.488;13.436;2023-03-23T04:50:19;12.40;40.80
11239;DHT22;5677;48.488;13.436;2023-03-23T04:52:47;12.40;40.80
11239;DHT22;5677;48.488;13.436;2023-03-23T04:55:14;12.40;40.80
11239;DHT22;5677;48.488;13.436;2023-03-23T04:57:41;12.40;40.80
11239;DHT22;5677;48.488;13.436;2023-03-23T05:00:09;12.40;40.80
11239;DHT22;5677;48.488;13.436;2023-03-23T05:02:41;12.40;40.80
11239;DHT22;5677;48.488;13.436;2023-03-23T05:05:13;12.40;40.80
11239;DHT22;5677;48.488;13.436;2023-03-23T05:07:41;12.40;40.80
11239;DHT22;5677;48.488;13.436;2023-03-23T05:10:09;12.40;40.80
11239;DHT22;5677;48.488;13.436;2023-03-23T05:12:37;12.40;40.80
11239;DHT22;5677;48.488;13.436;2023-03-23T05:15:05;12.40;40.80
11239;DHT22;5677;48.488;13.436;2023-03-23T05:17:32;12.40;40.80
11239;DHT22;5677;48.488;13.436;2023-03-23T05:20:02;12.40;40.90
11239;DHT22;5677;48.488;13.436;2023-03-23T05:22:30;12.40;40.80
11239;DHT22;5677;48.488;13.436;2023-03-23T05:24:57;12.40;40.80
11239;DHT22;5677;48.488;13.436;2023-03-23T05:27:24;12.40;40.80
11239;DHT22;5677;48.488;13.436;2023-03-23T05:29:53;12.40;40.80
11239;DHT22;5677;48.488;13.436;2023-03-23T05:32:20;12.40;40.90
11239;DHT22;5677;48.488;13.436;2023-03-23T05:34:54;12.30;40.90
11239;DHT22;5677;48.488;13.436;2023-03-23T05:37:23;12.40;40.80
11239;DHT22;5677;48.488;13.436;2023-03-23T05:39:50;12.40;40.80
11239;DHT22;5677;48.488;13.436;2023-03-23T05:42:19;12.40;40.90
11239;DHT22;5677;48.488;13.436;2023-03-23T05:44:45;12.30;40.90
11239;DHT22;5677;48.488;13.436;2023-03-23T05:47:12;12.30;40.90
11239;DHT22;5677;48.488;13.436;2023-03-23T05:49:39;12.40;40.90
11239;DHT22;5677;48.488;13.436;2023-03-23T05:52:06;12.30;40.90
11239;DHT22;5677;48.488;13.436;2023-03-23T05:54:35;12.40;40.80
11239;DHT22;5677;48.488;13.436;2023-03-23T05:57:02;12.30;40.90
11239;DHT22;5677;48.488;13.436;2023-03-23T05:59:29;12.30;40.80
11239;DHT22;5677;48.488;13.436;2023-03-23T06:01:56;12.40;40.90
11239;DHT22;5677;48.488;13.436;2023-03-23T06:04:22;12.40;40.90
11239;DHT22;5677;48.488;13.436;2023-03-23T06:06:50;12.30;40.90
11239;DHT22;5677;48.488;13.436;2023-03-23T06:09:17;12.40;40.90
11239;DHT22;5677;48.488;13.436;2023-03-23T06:11:45;12.30;40.90
11239;DHT22;5677;48.488;13.436;2023-03-23T06:14:13;12.30;40.90
11239;DHT22;5677;48.488;13.436;2023-03-23T06:16:39;12.30;40.80
11239;DHT22;5677;48.488;13.436;2023-03-23T06:19:06;12.30;40.80
11239;DHT22;5677;48.488;13.436;2023-03-23T06:21:33;12.30;40.90
11239;DHT22;5677;48.488;13.436;2023-03-23T06:24:01;12.30;41.50
11239;DHT22;5677;48.488;13.436;2023-03-23T06:26:31;12.40;40.80
11239;DHT22;5677;48.488;13.436;2023-03-23T06:29:00;12.40;40.80
11239;DHT22;5677;48.488;13.436;2023-03-23T06:31:27;12.40;40.80
11239;DHT22;5677;48.488;13.436;2023-03-23T06:33:54;12.40;40.80
11239;DHT22;5677;48.488;13.436;2023-03-23T06:36:20;12.40;40.70
11239;DHT22;5677;48.488;13.436;2023-03-23T06:38:48;12.50;40.80
11239;DHT22;5677;48.488;13.436;2023-03-23T06:41:14;12.50;40.80
11239;DHT22;5677;48.488;13.436;2023-03-23T06:43:41;12.50;40.70
11239;DHT22;5677;48.488;13.436;2023-03-23T06:46:10;12.60;40.70
11239;DHT22;5677;48.488;13.436;2023-03-23T06:48:37;12.60;40.70
11239;DHT22;5677;48.488;13.436;2023-03-23T06:51:05;12.70;40.70
11239;DHT22;5677;48.488;13.436;2023-03-23T06:53:32;12.70;40.70
11239;DHT22;5677;48.488;13.436;2023-03-23T06:55:58;12.70;40.60
11239;DHT22;5677;48.488;13.436;2023-03-23T06:58:27;12.70;40.50
11239;DHT22;5677;48.488;13.436;2023-03-23T07:00:54;12.70;40.40
11239;DHT22;5677;48.488;13.436;2023-03-23T07:03:23;12.80;40.40
11239;DHT22;5677;48.488;13.436;2023-03-23T07:05:51;12.90;40.40
11239;DHT22;5677;48.488;13.436;2023-03-23T07:08:18;12.90;40.30
11239;DHT22;5677;48.488;13.436;2023-03-23T07:10:44;12.90;40.30
11239;DHT22;5677;48.488;13.436;2023-03-23T07:13:11;12.90;40.30
11239;DHT22;5677;48.488;13.436;2023-03-23T07:15:38;12.80;40.20
11239;DHT22;5677;48.488;13.436;2023-03-23T07:18:05;12.80;40.20
11239;DHT22;5677;48.488;13.436;2023-03-23T07:20:33;12.80;40.30
11239;DHT22;5677;48.488;13.436;2023-03-23T07:23:01;12.70;40.30
11239;DHT22;5677;48.488;13.436;2023-03-23T07:25:30;12.70;40.40
11239;DHT22;5677;48.488;13.436;2023-03-23T07:27:58;12.80;40.40
11239;DHT22;5677;48.488;13.436;2023-03-23T07:30:25;12.70;40.40
11239;DHT22;5677;48.488;13.436;2023-03-23T07:32:52;12.70;40.50
11239;DHT22;5677;48.488;13.436;2023-03-23T07:35:19;12.80;40.40
11239;DHT22;5677;48.488;13.436;2023-03-23T07:37:47;12.80;40.40
11239;DHT22;5677;48.488;13.436;2023-03-23T07:40:15;12.80;40.30
11239;DHT22;5677;48.488;13.436;2023-03-23T07:42:44;12.90;40.40
11239;DHT22;5677;48.488;13.436;2023-03-23T07:45:15;12.90;40.30
11239;DHT22;5677;48.488;13.436;2023-03-23T07:47:41;12.90;40.20
11239;DHT22;5677;48.488;13.436;2023-03-23T07:50:09;12.90;40.10
11239;DHT22;5677;48.488;13.436;2023-03-23T07:52:36;12.90;40.10
11239;DHT22;5677;48.488;13.436;2023-03-23T07:55:06;12.90;40.10
11239;DHT22;5677;48.488;13.436;2023-03-23T07:57:34;12.90;40.10
11239;DHT22;5677;48.488;13.436;2023-03-23T08:00:00;12.90;40.10
11239;DHT22;5677;48.488;13.436;2023-03-23T08:02:40;12.90;40.10
11239;DHT22;5677;48.488;13.436;2023-03-23T08:05:07;12.90;40.10
11239;DHT22;5677;48.488;13.436;2023-03-23T08:07:34;12.90;40.10
11239;DHT22;5677;48.488;13.436;2023-03-23T08:10:01;12.90;40.10
11239;DHT22;5677;48.488;13.436;2023-03-23T08:12:29;13.00;40.10
11239;DHT22;5677;48.488;13.436;2023-03-23T08:14:56;12.90;40.00
11239;DHT22;5677;48.488;13.436;2023-03-23T08:17:24;13.00;40.00
11239;DHT22;5677;48.488;13.436;2023-03-23T08:19:51;13.00;40.00
11239;DHT22;5677;48.488;13.436;2023-03-23T08:22:18;13.00;39.90
11239;DHT22;5677;48.488;13.436;2023-03-23T08:24:45;13.00;39.80
11239;DHT22;5677;48.488;13.436;2023-03-23T08:27:11;13.10;39.80
11239;DHT22;5677;48.488;13.436;2023-03-23T08:29:39;13.10;39.80
11239;DHT22;5677;48.488;13.436;2023-03-23T08:32:07;13.10;39.80
11239;DHT22;5677;48.488;13.436;2023-03-23T08:34:33;13.10;39.70
11239;DHT22;5677;48.488;13.436;2023-03-23T08:37:00;13.10;39.70
11239;DHT22;5677;48.488;13.436;2023-03-23T08:39:27;13.10;39.70
11239;DHT22;5677;48.488;13.436;2023-03-23T08:41:55;13.10;39.70
11239;DHT22;5677;48.488;13.436;2023-03-23T08:44:22;13.20;39.70
11239;DHT22;5677;48.488;13.436;2023-03-23T08:46:50;13.20;39.60
11239;DHT22;5677;48.488;13.436;2023-03-23T08:49:20;13.20;39.50
11239;DHT22;5677;48.488;13.436;2023-03-23T08:51:47;13.30;39.60
11239;DHT22;5677;48.488;13.436;2023-03-23T08:54:14;13.30;39.50
11239;DHT22;5677;48.488;13.436;2023-03-23T08:56:41;13.30;39.50
11239;DHT22;5677;48.488;13.436;2023-03-23T08:59:07;13.30;39.40
11239;DHT22;5677;48.488;13.436;2023-03-23T09:01:34;13.30;39.40
11239;DHT22;5677;48.488;13.436;2023-03-23T09:04:03;13.30;39.30
11239;DHT22;5677;48.488;13.436;2023-03-23T09:06:30;13.40;39.30
11239;DHT22;5677;48.488;13.436;2023-03-23T09:08:56;13.40;39.30
11239;DHT22;5677;48.488;13.436;2023-03-23T09:11:24;13.40;39.30
11239;DHT22;5677;48.488;13.436;2023-03-23T09:13:51;13.40;39.30
11239;DHT22;5677;48.488;13.436;2023-03-23T09:16:18;13.40;39.30
11239;DHT22;5677;48.488;13.436;2023-03-23T09:18:44;13.40;39.30
11239;DHT22;5677;48.488;13.436;2023-03-23T09:21:12;13.40;39.30
11239;DHT22;5677;48.488;13.436;2023-03-23T09:23:39;13.40;39.30
11239;DHT22;5677;48.488;13.436;2023-03-23T09:26:09;13.40;39.30
11239;DHT22;5677;48.488;13.436;2023-03-23T09:28:36;13.40;39.30
11239;DHT22;5677;48.488;13.436;2023-03-23T09:31:03;13.40;39.30
11239;DHT22;5677;48.488;13.436;2023-03-23T09:33:30;13.40;39.40
11239;DHT22;5677;48.488;13.436;2023-03-23T09:35:59;13.40;39.30
11239;DHT22;5677;48.488;13.436;2023-03-23T09:38:27;13.40;39.30
11239;DHT22;5677;48.488;13.436;2023-03-23T09:41:03;13.40;39.30
11239;DHT22;5677;48.488;13.436;2023-03-23T09:43:43;13.40;39.40
11239;DHT22;5677;48.488;13.436;2023-03-23T09:46:27;13.40;39.40
11239;DHT22;5677;48.488;13.436;2023-03-23T09:48:58;13.40;39.40
11239;DHT22;5677;48.488;13.436;2023-03-23T09:51:37;13.40;39.40
11239;DHT22;5677;48.488;13.436;2023-03-23T09:54:12;13.40;39.40
11239;DHT22;5677;48.488;13.436;2023-03-23T09:56:40;13.50;39.40
11239;DHT22;5677;48.488;13.436;2023-03-23T09:59:14;13.50;39.40
11239;DHT22;5677;48.488;13.436;2023-03-23T10:01:45;13.50;39.40
11239;DHT22;5677;48.488;13.436;2023-03-23T10:04:20;13.50;39.40
11239;DHT22;5677;48.488;13.436;2023-03-23T10:06:49;13.50;39.40
11239;DHT22;5677;48.488;13.436;2023-03-23T10:09:19;13.40;39.30
11239;DHT22;5677;48.488;13.436;2023-03-23T10:11:54;13.50;39.40
11239;DHT22;5677;48.488;13.436;2023-03-23T10:14:31;13.50;39.40
11239;DHT22;5677;48.488;13.436;2023-03-23T10:17:03;13.50;39.40
11239;DHT22;5677;48.488;13.436;2023-03-23T10:19:40;13.50;39.40
11239;DHT22;5677;48.488;13.436;2023-03-23T10:22:11;13.50;39.30
11239;DHT22;5677;48.488;13.436;2023-03-23T10:24:46;13.50;39.30
11239;DHT22;5677;48.488;13.436;2023-03-23T10:27:22;13.60;39.30
11239;DHT22;5677;48.488;13.436;2023-03-23T10:29:55;13.60;39.30
11239;DHT22;5677;48.488;13.436;2023-03-23T10:32:39;13.60;39.30
11239;DHT22;5677;48.488;13.436;2023-03-23T10:35:11;13.60;39.30
11239;DHT22;5677;48.488;13.436;2023-03-23T10:37:44;13.60;39.30
11239;DHT22;5677;48.488;13.436;2023-03-23T10:40:16;13.60;39.20
11239;DHT22;5677;48.488;13.436;2023-03-23T10:42:45;13.60;39.70
11239;DHT22;5677;48.488;13.436;2023-03-23T10:45:17;13.60;39.20
11239;DHT22;5677;48.488;13.436;2023-03-23T10:47:49;13.60;39.20
11239;DHT22;5677;48.488;13.436;2023-03-23T10:50:23;13.70;39.30
11239;DHT22;5677;48.488;13.436;2023-03-23T10:52:51;13.70;39.30
11239;DHT22;5677;48.488;13.436;2023-03-23T10:55:21;13.60;39.20
11239;DHT22;5677;48.488;13.436;2023-03-23T10:57:59;13.60;39.30
11239;DHT22;5677;48.488;13.436;2023-03-23T11:00:28;13.70;39.40
11239;DHT22;5677;48.488;13.436;2023-03-23T11:03:01;13.70;39.30
11239;DHT22;5677;48.488;13.436;2023-03-23T11:05:35;13.70;39.30
11239;DHT22;5677;48.488;13.436;2023-03-23T11:08:03;13.70;39.30
11239;DHT22;5677;48.488;13.436;2023-03-23T11:10:39;13.70;39.30
11239;DHT22;5677;48.488;13.436;2023-03-23T11:13:12;13.70;39.40
11239;DHT22;5677;48.488;13.436;2023-03-23T11:15:40;13.70;39.40
11239;DHT22;5677;48.488;13.436;2023-03-23T11:18:11;13.70;39.40
11239;DHT22;5677;48.488;13.436;2023-03-23T11:20:41;13.70;39.40
11239;DHT22;5677;48.488;13.436;2023-03-23T11:23:13;13.70;39.40
11239;DHT22;5677;48.488;13.436;2023-03-23T11:25:58;13.70;39.40
11239;DHT22;5677;48.488;13.436;2023-03-23T11:28:28;13.70;39.40
11239;DHT22;5677;48.488;13.436;2023-03-23T11:30:57;13.70;39.40
11239;DHT22;5677;48.488;13.436;2023-03-23T11:33:24;13.70;40.10
11239;DHT22;5677;48.488;13.436;2023-03-23T11:35:52;13.70;39.50
11239;DHT22;5677;48.488;13.436;2023-03-23T11:38:22;13.70;39.50
11239;DHT22;5677;48.488;13.436;2023-03-23T11:40:52;13.70;39.50
11239;DHT22;5677;48.488;13.436;2023-03-23T11:43:20;13.70;39.60
11239;DHT22;5677;48.488;13.436;2023-03-23T11:45:53;13.70;39.60
11239;DHT22;5677;48.488;13.436;2023-03-23T11:48:28;13.70;39.60
11239;DHT22;5677;48.488;13.436;2023-03-23T11:50:58;13.60;39.60
11239;DHT22;5677;48.488;13.436;2023-03-23T11:53:32;13.70;39.70
11239;DHT22;5677;48.488;13.436;2023-03-23T11:56:14;13.60;39.60
11239;DHT22;5677;48.488;13.436;2023-03-23T11:58:42;13.60;39.60
11239;DHT22;5677;48.488;13.436;2023-03-23T12:01:15;13.60;39.70
11239;DHT22;5677;48.488;13.436;2023-03-23T12:03:56;13.60;39.70
11239;DHT22;5677;48.488;13.436;2023-03-23T12:06:30;13.60;39.70
11239;DHT22;5677;48.488;13.436;2023-03-23T12:09:09;13.60;39.80
11239;DHT22;5677;48.488;13.436;2023-03-23T12:11:48;13.60;39.80
11239;DHT22;5677;48.488;13.436;2023-03-23T12:14:23;13.60;39.80
11239;DHT22;5677;48.488;13.436;2023-03-23T12:17:04;13.60;39.80
11239;DHT22;5677;48.488;13.436;2023-03-23T12:19:40;13.60;39.80
11239;DHT22;5677;48.488;13.436;2023-03-23T12:22:17;13.60;39.80
11239;DHT22;5677;48.488;13.436;2023-03-23T12:24:57;13.60;39.90
11239;DHT22;5677;48.488;13.436;2023-03-23T12:27:33;13.50;39.90
11239;DHT22;5677;48.488;13.436;2023-03-23T12:30:28;13.60;39.90
11239;DHT22;5677;48.488;13.436;2023-03-23T12:33:16;13.60;39.90
11239;DHT22;5677;48.488;13.436;2023-03-23T12:35:58;13.50;39.90
11239;DHT22;5677;48.488;13.436;2023-03-23T12:38:48;13.50;39.90
11239;DHT22;5677;48.488;13.436;2023-03-23T12:41:19;13.50;39.90
11239;DHT22;5677;48.488;13.436;2023-03-23T12:43:58;13.50;40.00
11239;DHT22;5677;48.488;13.436;2023-03-23T12:46:37;13.50;40.00
11239;DHT22;5677;48.488;13.436;2023-03-23T12:49:09;13.50;40.00
11239;DHT22;5677;48.488;13.436;2023-03-23T12:51:42;13.50;40.00
11239;DHT22;5677;48.488;13.436;2023-03-23T12:54:15;13.50;40.00
11239;DHT22;5677;48.488;13.436;2023-03-23T12:56:48;13.50;40.00
11239;DHT22;5677;48.488;13.436;2023-03-23T12:59:23;13.50;40.00
11239;DHT22;5677;48.488;13.436;2023-03-23T13:01:57;13.50;40.00
11239;DHT22;5677;48.488;13.436;2023-03-23T13:04:29;13.50;40.00
11239;DHT22;5677;48.488;13.436;2023-03-23T13:06:58;13.50;40.00
11239;DHT22;5677;48.488;13.436;2023-03-23T13:09:30;13.50;39.90
11239;DHT22;5677;48.488;13.436;2023-03-23T13:12:00;13.50;40.60
11239;DHT22;5677;48.488;13.436;2023-03-23T13:14:37;13.50;40.00
11239;DHT22;5677;48.488;13.436;2023-03-23T13:17:15;13.50;40.00
11239;DHT22;5677;48.488;13.436;2023-03-23T13:22:49;13.50;40.00
11239;DHT22;5677;48.488;13.436;2023-03-23T13:25:19;13.50;40.00
11239;DHT22;5677;48.488;13.436;2023-03-23T13:27:59;13.50;40.10
11239;DHT22;5677;48.488;13.436;2023-03-23T13:30:28;13.50;40.10
11239;DHT22;5677;48.488;13.436;2023-03-23T13:33:02;13.50;40.10
11239;DHT22;5677;48.488;13.436;2023-03-23T13:35:34;13.50;40.10
11239;DHT22;5677;48.488;13.436;2023-03-23T13:38:12;13.50;40.10
11239;DHT22;5677;48.488;13.436;2023-03-23T13:40:42;13.50;40.10
11239;DHT22;5677;48.488;13.436;2023-03-23T13:43:09;13.50;40.10
11239;DHT22;5677;48.488;13.436;2023-03-23T13:45:44;13.40;40.00
11239;DHT22;5677;48.488;13.436;2023-03-23T13:48:20;13.40;40.00
11239;DHT22;5677;48.488;13.436;2023-03-23T13:50:53;13.50;40.10
11239;DHT22;5677;48.488;13.436;2023-03-23T13:53:24;13.50;40.10
11239;DHT22;5677;48.488;13.436;2023-03-23T13:56:06;13.50;40.10
11239;DHT22;5677;48.488;13.436;2023-03-23T13:58:44;13.50;40.10
11239;DHT22;5677;48.488;13.436;2023-03-23T14:01:16;13.40;40.00
11239;DHT22;5677;48.488;13.436;2023-03-23T14:03:45;13.40;40.00
11239;DHT22;5677;48.488;13.436;2023-03-23T14:06:18;13.50;40.10
11239;DHT22;5677;48.488;13.436;2023-03-23T14:08:48;13.40;40.10
11239;DHT22;5677;48.488;13.436;2023-03-23T14:11:20;13.40;40.00
11239;DHT22;5677;48.488;13.436;2023-03-23T14:14:01;13.40;40.10
11239;DHT22;5677;48.488;13.436;2023-03-23T14:16:38;13.40;40.10
11239;DHT22;5677;48.488;13.436;2023-03-23T14:19:15;13.40;40.10
11239;DHT22;5677;48.488;13.436;2023-03-23T14:21:49;13.50;40.10
11239;DHT22;5677;48.488;13.436;2023-03-23T14:24:20;13.40;40.10
11239;DHT22;5677;48.488;13.436;2023-03-23T14:26:49;13.40;40.10
11239;DHT22;5677;48.488;13.436;2023-03-23T14:29:19;13.40;40.10
11239;DHT22;5677;48.488;13.436;2023-03-23T14:31:53;13.40;40.10
11239;DHT22;5677;48.488;13.436;2023-03-23T14:34:23;13.40;40.10
11239;DHT22;5677;48.488;13.436;2023-03-23T14:36:52;13.40;40.00
11239;DHT22;5677;48.488;13.436;2023-03-23T14:39:22;13.40;40.10
11239;DHT22;5677;48.488;13.436;2023-03-23T14:41:49;13.40;40.00
11239;DHT22;5677;48.488;13.436;2023-03-23T14:44:21;13.40;40.10
11239;DHT22;5677;48.488;13.436;2023-03-23T14:46:49;13.40;40.10
11239;DHT22;5677;48.488;13.436;2023-03-23T14:49:18;13.50;40.10
11239;DHT22;5677;48.488;13.436;2023-03-23T14:51:50;13.50;40.10
11239;DHT22;5677;48.488;13.436;2023-03-23T14:54:22;13.40;40.00
11239;DHT22;5677;48.488;13.436;2023-03-23T14:56:49;13.40;40.10
11239;DHT22;5677;48.488;13.436;2023-03-23T14:59:16;13.40;40.00
11239;DHT22;5677;48.488;13.436;2023-03-23T15:01:43;13.40;40.00
11239;DHT22;5677;48.488;13.436;2023-03-23T15:04:16;13.40;40.70
11239;DHT22;5677;48.488;13.436;2023-03-23T15:06:46;13.40;40.10
11239;DHT22;5677;48.488;13.436;2023-03-23T15:09:15;13.40;40.10
11239;DHT22;5677;48.488;13.436;2023-03-23T15:11:49;13.40;40.00
11239;DHT22;5677;48.488;13.436;2023-03-23T15:14:19;13.40;40.10
11239;DHT22;5677;48.488;13.436;2023-03-23T15:16:49;13.40;40.00
11239;DHT22;5677;48.488;13.436;2023-03-23T15:19:22;13.50;40.20
11239;DHT22;5677;48.488;13.436;2023-03-23T15:21:53;13.40;40.10
11239;DHT22;5677;48.488;13.436;2023-03-23T15:24:33;13.40;40.10
11239;DHT22;5677;48.488;13.436;2023-03-23T15:27:11;13.40;40.10
11239;DHT22;5677;48.488;13.436;2023-03-23T15:29:49;13.40;40.10
11239;DHT22;5677;48.488;13.436;2023-03-23T15:32:22;13.40;40.10
11239;DHT22;5677;48.488;13.436;2023-03-23T15:34:50;13.40;40.10
11239;DHT22;5677;48.488;13.436;2023-03-23T15:37:20;13.40;40.10
11239;DHT22;5677;48.488;13.436;2023-03-23T15:39:48;13.40;40.10
11239;DHT22;5677;48.488;13.436;2023-03-23T15:42:23;13.40;40.10
11239;DHT22;5677;48.488;13.436;2023-03-23T15:47:45;13.40;40.20
11239;DHT22;5677;48.488;13.436;2023-03-23T15:50:16;13.40;40.20
11239;DHT22;5677;48.488;13.436;2023-03-23T15:52:43;13.40;40.20
11239;DHT22;5677;48.488;13.436;2023-03-23T15:55:25;13.40;40.20
11239;DHT22;5677;48.488;13.436;2023-03-23T15:57:53;13.40;40.20
11239;DHT22;5677;48.488;13.436;2023-03-23T16:00:21;13.40;40.20